sensor_id;sensor_type;location;lat;lon;timestamp;temperature;humidity
10889;DHT22;5497;51.388;6.780;2022-11-15T00:00:10;11.20;99.90
10889;DHT22;5497;51.388;6.780;2022-11-15T00:02:55;11.20;99.90
10889;DHT22;5497;51.388;6.780;2022-11-15T00:05:41;11.20;99.90
10889;DHT22;5497;51.388;6.780;2022-11-15T00:08:28;11.30;99.90
10889;DHT22;5497;51.388;6.780;2022-11-15T00:11:14;11.30;99.90
10889;DHT22;5497;51.388;6.780;2022-11-15T00:13:59;11.30;99.90
10889;DHT22;5497;51.388;6.780;2022-11-15T00:16:47;11.40;99.90
10889;DHT22;5497;51.388;6.780;2022-11-15T00:19:33;11.40;99.90
10889;DHT22;5497;51.388;6.780;2022-11-15T00:22:19;11.40;99.90
10889;DHT22;5497;51.388;6.780;2022-11-15T00:25:04;11.80;99.90
10889;DHT22;5497;51.388;6.780;2022-11-15T00:27:54;11.40;99.90
10889;DHT22;5497;51.388;6.780;2022-11-15T00:30:40;11.50;99.90
10889;DHT22;5497;51.388;6.780;2022-11-15T00:33:26;11.50;99.90
10889;DHT22;5497;51.388;6.780;2022-11-15T00:36:12;11.50;99.90
10889;DHT22;5497;51.388;6.780;2022-11-15T00:38:57;11.50;99.90
10889;DHT22;5497;51.388;6.780;2022-11-15T00:41:42;11.60;99.90
10889;DHT22;5497;51.388;6.780;2022-11-15T00:44:28;11.60;99.90
10889;DHT22;5497;51.388;6.780;2022-11-15T00:47:13;11.60;99.90
10889;DHT22;5497;51.388;6.780;2022-11-15T00:49:59;11.60;99.90
10889;DHT22;5497;51.388;6.780;2022-11-15T00:52:45;11.70;99.90
10889;DHT22;5497;51.388;6.780;2022-11-15T00:55:30;11.70;99.90
10889;DHT22;5497;51.388;6.780;2022-11-15T00:58:15;11.70;99.90
10889;DHT22;5497;51.388;6.780;2022-11-15T01:01:08;11.80;99.90
10889;DHT22;5497;51.388;6.780;2022-11-15T01:03:53;11.80;99.90
10889;DHT22;5497;51.388;6.780;2022-11-15T01:06:40;11.80;99.90
10889;DHT22;5497;51.388;6.780;2022-11-15T01:09:25;11.80;99.90
10889;DHT22;5497;51.388;6.780;2022-11-15T01:12:11;11.90;99.90
10889;DHT22;5497;51.388;6.780;2022-11-15T01:14:56;11.90;99.90
10889;DHT22;5497;51.388;6.780;2022-11-15T01:17:42;11.90;99.90
10889;DHT22;5497;51.388;6.780;2022-11-15T01:20:27;12.00;99.90
10889;DHT22;5497;51.388;6.780;2022-11-15T01:23:13;10.60;99.90
10889;DHT22;5497;51.388;6.780;2022-11-15T01:26:01;12.10;99.90
10889;DHT22;5497;51.388;6.780;2022-11-15T01:28:46;12.10;99.90
10889;DHT22;5497;51.388;6.780;2022-11-15T01:31:31;12.10;99.90
10889;DHT22;5497;51.388;6.780;2022-11-15T01:34:22;12.20;99.90
10889;DHT22;5497;51.388;6.780;2022-11-15T01:37:08;12.20;99.90
10889;DHT22;5497;51.388;6.780;2022-11-15T01:39:55;12.20;99.90
10889;DHT22;5497;51.388;6.780;2022-11-15T01:42:40;12.20;99.90
10889;DHT22;5497;51.388;6.780;2022-11-15T01:45:25;12.30;99.90
10889;DHT22;5497;51.388;6.780;2022-11-15T01:48:11;12.20;99.90
10889;DHT22;5497;51.388;6.780;2022-11-15T01:50:56;12.20;99.90
10889;DHT22;5497;51.388;6.780;2022-11-15T01:53:42;12.10;99.90
10889;DHT22;5497;51.388;6.780;2022-11-15T01:56:33;12.10;99.90
10889;DHT22;5497;51.388;6.780;2022-11-15T01:59:21;12.10;99.90
10889;DHT22;5497;51.388;6.780;2022-11-15T02:02:07;12.10;99.90
10889;DHT22;5497;51.388;6.780;2022-11-15T02:04:53;12.20;99.90
10889;DHT22;5497;51.388;6.780;2022-11-15T02:07:38;12.20;99.90
10889;DHT22;5497;51.388;6.780;2022-11-15T02:10:24;12.20;99.90
10889;DHT22;5497;51.388;6.780;2022-11-15T02:13:11;12.20;99.90
10889;DHT22;5497;51.388;6.780;2022-11-15T02:15:58;12.20;99.90
10889;DHT22;5497;51.388;6.780;2022-11-15T02:18:46;12.30;99.90
10889;DHT22;5497;51.388;6.780;2022-11-15T02:21:35;12.30;99.90
10889;DHT22;5497;51.388;6.780;2022-11-15T02:27:38;12.30;99.90
10889;DHT22;5497;51.388;6.780;2022-11-15T02:30:31;12.30;99.90
10889;DHT22;5497;51.388;6.780;2022-11-15T02:33:22;12.30;99.90
10889;DHT22;5497;51.388;6.780;2022-11-15T02:36:10;12.30;99.90
10889;DHT22;5497;51.388;6.780;2022-11-15T02:38:59;12.30;99.90
10889;DHT22;5497;51.388;6.780;2022-11-15T02:41:46;12.40;99.90
10889;DHT22;5497;51.388;6.780;2022-11-15T02:44:33;12.40;99.90
10889;DHT22;5497;51.388;6.780;2022-11-15T02:47:22;12.50;99.90
10889;DHT22;5497;51.388;6.780;2022-11-15T02:50:10;12.50;99.90
10889;DHT22;5497;51.388;6.780;2022-11-15T02:52:57;12.50;99.90
10889;DHT22;5497;51.388;6.780;2022-11-15T02:55:43;12.60;99.90
10889;DHT22;5497;51.388;6.780;2022-11-15T02:58:48;12.60;99.90
10889;DHT22;5497;51.388;6.780;2022-11-15T03:01:39;12.60;99.90
10889;DHT22;5497;51.388;6.780;2022-11-15T03:04:31;12.60;99.90
10889;DHT22;5497;51.388;6.780;2022-11-15T03:07:22;12.60;99.90
10889;DHT22;5497;51.388;6.780;2022-11-15T03:10:10;12.70;99.90
10889;DHT22;5497;51.388;6.780;2022-11-15T03:12:57;12.70;99.90
10889;DHT22;5497;51.388;6.780;2022-11-15T03:15:46;12.70;99.90
10889;DHT22;5497;51.388;6.780;2022-11-15T03:18:35;12.70;99.90
10889;DHT22;5497;51.388;6.780;2022-11-15T03:21:23;12.70;99.90
10889;DHT22;5497;51.388;6.780;2022-11-15T03:24:10;12.80;99.90
10889;DHT22;5497;51.388;6.780;2022-11-15T03:26:57;12.80;99.90
10889;DHT22;5497;51.388;6.780;2022-11-15T03:29:45;12.80;99.90
10889;DHT22;5497;51.388;6.780;2022-11-15T03:32:32;12.80;99.90
10889;DHT22;5497;51.388;6.780;2022-11-15T03:35:21;12.90;99.90
10889;DHT22;5497;51.388;6.780;2022-11-15T03:38:11;12.90;99.90
10889;DHT22;5497;51.388;6.780;2022-11-15T03:41:00;12.90;99.90
10889;DHT22;5497;51.388;6.780;2022-11-15T03:43:49;12.90;99.90
10889;DHT22;5497;51.388;6.780;2022-11-15T03:46:38;13.00;99.90
10889;DHT22;5497;51.388;6.780;2022-11-15T03:49:25;13.00;99.90
10889;DHT22;5497;51.388;6.780;2022-11-15T03:52:13;13.00;99.90
10889;DHT22;5497;51.388;6.780;2022-11-15T03:55:03;13.00;99.90
10889;DHT22;5497;51.388;6.780;2022-11-15T03:57:51;13.00;99.90
10889;DHT22;5497;51.388;6.780;2022-11-15T04:00:38;13.10;99.90
10889;DHT22;5497;51.388;6.780;2022-11-15T04:03:25;13.10;99.90
10889;DHT22;5497;51.388;6.780;2022-11-15T04:06:10;13.10;99.90
10889;DHT22;5497;51.388;6.780;2022-11-15T04:08:55;13.10;99.90
10889;DHT22;5497;51.388;6.780;2022-11-15T04:11:43;13.10;99.90
10889;DHT22;5497;51.388;6.780;2022-11-15T04:14:28;13.10;99.90
10889;DHT22;5497;51.388;6.780;2022-11-15T04:17:13;13.10;99.90
10889;DHT22;5497;51.388;6.780;2022-11-15T04:19:59;13.20;99.90
10889;DHT22;5497;51.388;6.780;2022-11-15T04:23:02;13.10;99.90
10889;DHT22;5497;51.388;6.780;2022-11-15T04:26:07;13.20;99.90
10889;DHT22;5497;51.388;6.780;2022-11-15T04:28:55;13.20;99.90
10889;DHT22;5497;51.388;6.780;2022-11-15T04:31:59;13.20;99.90
10889;DHT22;5497;51.388;6.780;2022-11-15T04:34:44;13.20;99.90
10889;DHT22;5497;51.388;6.780;2022-11-15T04:37:30;13.20;99.90
10889;DHT22;5497;51.388;6.780;2022-11-15T04:40:15;13.20;99.90
10889;DHT22;5497;51.388;6.780;2022-11-15T04:43:01;13.20;99.90
10889;DHT22;5497;51.388;6.780;2022-11-15T04:45:48;13.30;99.90
10889;DHT22;5497;51.388;6.780;2022-11-15T04:48:33;13.20;99.90
10889;DHT22;5497;51.388;6.780;2022-11-15T04:51:18;13.30;99.90
10889;DHT22;5497;51.388;6.780;2022-11-15T04:54:04;13.30;99.90
10889;DHT22;5497;51.388;6.780;2022-11-15T04:56:49;13.30;99.90
10889;DHT22;5497;51.388;6.780;2022-11-15T04:59:35;13.30;99.90
10889;DHT22;5497;51.388;6.780;2022-11-15T05:02:21;13.30;99.90
10889;DHT22;5497;51.388;6.780;2022-11-15T05:05:07;13.30;99.90
10889;DHT22;5497;51.388;6.780;2022-11-15T05:07:51;13.30;99.90
10889;DHT22;5497;51.388;6.780;2022-11-15T05:10:38;13.30;99.90
10889;DHT22;5497;51.388;6.780;2022-11-15T05:13:24;13.30;99.90
10889;DHT22;5497;51.388;6.780;2022-11-15T05:16:09;13.30;99.90
10889;DHT22;5497;51.388;6.780;2022-11-15T05:18:56;13.30;99.90
10889;DHT22;5497;51.388;6.780;2022-11-15T05:21:41;13.30;99.90
10889;DHT22;5497;51.388;6.780;2022-11-15T05:24:27;13.30;99.90
10889;DHT22;5497;51.388;6.780;2022-11-15T05:27:12;13.20;99.90
10889;DHT22;5497;51.388;6.780;2022-11-15T05:29:58;13.20;99.90
10889;DHT22;5497;51.388;6.780;2022-11-15T05:32:44;13.20;99.90
10889;DHT22;5497;51.388;6.780;2022-11-15T05:35:31;13.20;99.90
10889;DHT22;5497;51.388;6.780;2022-11-15T05:38:19;13.20;99.90
10889;DHT22;5497;51.388;6.780;2022-11-15T05:41:06;13.20;99.90
10889;DHT22;5497;51.388;6.780;2022-11-15T05:43:52;13.20;99.90
10889;DHT22;5497;51.388;6.780;2022-11-15T05:46:38;12.00;99.90
10889;DHT22;5497;51.388;6.780;2022-11-15T05:49:26;13.10;99.90
10889;DHT22;5497;51.388;6.780;2022-11-15T05:52:14;13.10;99.90
10889;DHT22;5497;51.388;6.780;2022-11-15T05:55:01;13.10;99.90
10889;DHT22;5497;51.388;6.780;2022-11-15T05:57:46;13.10;99.90
10889;DHT22;5497;51.388;6.780;2022-11-15T06:00:33;13.10;99.90
10889;DHT22;5497;51.388;6.780;2022-11-15T06:03:19;13.10;99.90
10889;DHT22;5497;51.388;6.780;2022-11-15T06:06:05;13.10;99.90
10889;DHT22;5497;51.388;6.780;2022-11-15T06:08:52;13.10;99.90
10889;DHT22;5497;51.388;6.780;2022-11-15T06:11:37;13.10;99.90
10889;DHT22;5497;51.388;6.780;2022-11-15T06:14:23;13.00;99.90
10889;DHT22;5497;51.388;6.780;2022-11-15T06:17:08;13.10;99.90
10889;DHT22;5497;51.388;6.780;2022-11-15T06:19:55;13.10;99.90
10889;DHT22;5497;51.388;6.780;2022-11-15T06:22:41;13.10;99.90
10889;DHT22;5497;51.388;6.780;2022-11-15T06:25:28;13.00;99.90
10889;DHT22;5497;51.388;6.780;2022-11-15T06:28:14;13.00;99.90
10889;DHT22;5497;51.388;6.780;2022-11-15T06:31:02;13.00;99.90
10889;DHT22;5497;51.388;6.780;2022-11-15T06:33:47;13.00;99.90
10889;DHT22;5497;51.388;6.780;2022-11-15T06:36:33;13.00;99.90
10889;DHT22;5497;51.388;6.780;2022-11-15T06:39:19;13.00;99.90
10889;DHT22;5497;51.388;6.780;2022-11-15T06:42:07;13.00;99.90
10889;DHT22;5497;51.388;6.780;2022-11-15T06:44:52;13.00;99.90
10889;DHT22;5497;51.388;6.780;2022-11-15T06:47:43;13.00;99.90
10889;DHT22;5497;51.388;6.780;2022-11-15T06:50:29;13.00;99.90
10889;DHT22;5497;51.388;6.780;2022-11-15T06:53:15;13.00;99.90
10889;DHT22;5497;51.388;6.780;2022-11-15T06:56:00;13.00;99.90
10889;DHT22;5497;51.388;6.780;2022-11-15T06:58:47;13.00;99.90
10889;DHT22;5497;51.388;6.780;2022-11-15T07:01:33;13.00;99.90
10889;DHT22;5497;51.388;6.780;2022-11-15T07:04:18;13.00;99.90
10889;DHT22;5497;51.388;6.780;2022-11-15T07:07:04;13.00;99.90
10889;DHT22;5497;51.388;6.780;2022-11-15T07:09:49;13.00;99.90
10889;DHT22;5497;51.388;6.780;2022-11-15T07:12:35;13.00;99.90
10889;DHT22;5497;51.388;6.780;2022-11-15T07:15:22;13.10;99.90
10889;DHT22;5497;51.388;6.780;2022-11-15T07:18:08;13.00;99.90
10889;DHT22;5497;51.388;6.780;2022-11-15T07:20:53;13.10;99.90
10889;DHT22;5497;51.388;6.780;2022-11-15T07:23:39;13.10;99.90
10889;DHT22;5497;51.388;6.780;2022-11-15T07:26:25;13.10;99.90
10889;DHT22;5497;51.388;6.780;2022-11-15T07:29:11;13.10;99.90
10889;DHT22;5497;51.388;6.780;2022-11-15T07:31:57;13.10;99.90
10889;DHT22;5497;51.388;6.780;2022-11-15T07:34:42;13.20;99.90
10889;DHT22;5497;51.388;6.780;2022-11-15T07:37:30;13.20;99.90
10889;DHT22;5497;51.388;6.780;2022-11-15T07:40:15;13.20;99.90
10889;DHT22;5497;51.388;6.780;2022-11-15T07:43:01;13.20;99.90
10889;DHT22;5497;51.388;6.780;2022-11-15T07:45:46;13.20;99.90
10889;DHT22;5497;51.388;6.780;2022-11-15T07:48:33;13.20;99.90
10889;DHT22;5497;51.388;6.780;2022-11-15T07:51:19;13.20;99.90
10889;DHT22;5497;51.388;6.780;2022-11-15T07:54:05;13.30;99.90
10889;DHT22;5497;51.388;6.780;2022-11-15T07:56:50;13.30;99.90
10889;DHT22;5497;51.388;6.780;2022-11-15T07:59:38;13.30;99.90
10889;DHT22;5497;51.388;6.780;2022-11-15T08:02:23;13.30;99.90
10889;DHT22;5497;51.388;6.780;2022-11-15T08:05:10;13.20;99.90
10889;DHT22;5497;51.388;6.780;2022-11-15T08:07:56;13.10;99.90
10889;DHT22;5497;51.388;6.780;2022-11-15T08:10:41;13.10;99.90
10889;DHT22;5497;51.388;6.780;2022-11-15T08:13:27;13.00;99.90
10889;DHT22;5497;51.388;6.780;2022-11-15T08:16:13;13.00;99.90
10889;DHT22;5497;51.388;6.780;2022-11-15T08:18:58;13.10;99.90
10889;DHT22;5497;51.388;6.780;2022-11-15T08:21:45;13.00;99.90
10889;DHT22;5497;51.388;6.780;2022-11-15T08:24:31;13.00;99.90
10889;DHT22;5497;51.388;6.780;2022-11-15T08:27:19;13.00;99.90
10889;DHT22;5497;51.388;6.780;2022-11-15T08:30:04;13.10;99.90
10889;DHT22;5497;51.388;6.780;2022-11-15T08:32:51;13.10;99.90
10889;DHT22;5497;51.388;6.780;2022-11-15T08:35:37;13.10;99.90
10889;DHT22;5497;51.388;6.780;2022-11-15T08:38:24;13.10;99.90
10889;DHT22;5497;51.388;6.780;2022-11-15T08:41:10;13.10;99.90
10889;DHT22;5497;51.388;6.780;2022-11-15T08:43:56;13.10;99.90
10889;DHT22;5497;51.388;6.780;2022-11-15T08:46:43;13.10;99.90
10889;DHT22;5497;51.388;6.780;2022-11-15T08:49:30;13.20;99.90
10889;DHT22;5497;51.388;6.780;2022-11-15T08:52:16;13.20;99.90
10889;DHT22;5497;51.388;6.780;2022-11-15T08:55:03;13.30;99.90
10889;DHT22;5497;51.388;6.780;2022-11-15T08:57:49;12.20;99.90
10889;DHT22;5497;51.388;6.780;2022-11-15T09:00:34;13.40;99.90
10889;DHT22;5497;51.388;6.780;2022-11-15T09:03:20;13.40;99.90
10889;DHT22;5497;51.388;6.780;2022-11-15T09:06:06;13.50;99.90
10889;DHT22;5497;51.388;6.780;2022-11-15T09:08:51;13.50;99.90
10889;DHT22;5497;51.388;6.780;2022-11-15T09:11:37;13.60;99.90
10889;DHT22;5497;51.388;6.780;2022-11-15T09:14:23;13.90;99.90
10889;DHT22;5497;51.388;6.780;2022-11-15T09:17:09;14.10;99.90
10889;DHT22;5497;51.388;6.780;2022-11-15T09:19:54;14.40;99.90
10889;DHT22;5497;51.388;6.780;2022-11-15T09:22:40;14.60;99.90
10889;DHT22;5497;51.388;6.780;2022-11-15T09:25:25;14.70;99.90
10889;DHT22;5497;51.388;6.780;2022-11-15T09:28:11;14.70;99.90
10889;DHT22;5497;51.388;6.780;2022-11-15T09:30:57;14.70;99.90
10889;DHT22;5497;51.388;6.780;2022-11-15T09:33:44;14.70;99.90
10889;DHT22;5497;51.388;6.780;2022-11-15T09:36:29;14.60;99.90
10889;DHT22;5497;51.388;6.780;2022-11-15T09:39:15;14.60;99.90
10889;DHT22;5497;51.388;6.780;2022-11-15T09:42:17;14.60;99.90
10889;DHT22;5497;51.388;6.780;2022-11-15T09:45:10;14.70;99.90
10889;DHT22;5497;51.388;6.780;2022-11-15T09:48:03;14.90;99.90
10889;DHT22;5497;51.388;6.780;2022-11-15T09:51:00;14.80;99.90
10889;DHT22;5497;51.388;6.780;2022-11-15T09:53:29;14.90;99.90
10889;DHT22;5497;51.388;6.780;2022-11-15T09:55:58;14.90;99.90
10889;DHT22;5497;51.388;6.780;2022-11-15T09:58:30;14.90;99.90
10889;DHT22;5497;51.388;6.780;2022-11-15T10:01:02;14.90;99.90
10889;DHT22;5497;51.388;6.780;2022-11-15T10:03:33;14.80;99.90
10889;DHT22;5497;51.388;6.780;2022-11-15T10:06:02;14.80;99.90
10889;DHT22;5497;51.388;6.780;2022-11-15T10:11:19;15.00;99.90
10889;DHT22;5497;51.388;6.780;2022-11-15T10:13:47;15.00;99.90
10889;DHT22;5497;51.388;6.780;2022-11-15T10:16:20;15.10;99.90
10889;DHT22;5497;51.388;6.780;2022-11-15T10:18:52;15.10;99.90
10889;DHT22;5497;51.388;6.780;2022-11-15T10:21:24;15.20;99.90
10889;DHT22;5497;51.388;6.780;2022-11-15T10:23:52;15.20;99.90
10889;DHT22;5497;51.388;6.780;2022-11-15T10:26:19;15.30;99.90
10889;DHT22;5497;51.388;6.780;2022-11-15T10:28:47;15.40;99.90
10889;DHT22;5497;51.388;6.780;2022-11-15T10:31:23;15.50;99.90
10889;DHT22;5497;51.388;6.780;2022-11-15T10:33:50;15.50;99.90
10889;DHT22;5497;51.388;6.780;2022-11-15T10:36:19;15.50;99.90
10889;DHT22;5497;51.388;6.780;2022-11-15T10:38:56;15.60;99.90
10889;DHT22;5497;51.388;6.780;2022-11-15T10:41:37;15.10;99.90
10889;DHT22;5497;51.388;6.780;2022-11-15T10:44:09;15.60;99.90
10889;DHT22;5497;51.388;6.780;2022-11-15T10:46:39;15.80;99.90
10889;DHT22;5497;51.388;6.780;2022-11-15T10:49:12;15.90;99.90
10889;DHT22;5497;51.388;6.780;2022-11-15T10:51:41;16.00;99.90
10889;DHT22;5497;51.388;6.780;2022-11-15T10:54:10;16.10;99.90
10889;DHT22;5497;51.388;6.780;2022-11-15T10:56:38;16.10;99.90
10889;DHT22;5497;51.388;6.780;2022-11-15T10:59:07;16.10;99.90
10889;DHT22;5497;51.388;6.780;2022-11-15T11:01:46;16.20;99.90
10889;DHT22;5497;51.388;6.780;2022-11-15T11:04:13;16.20;99.90
10889;DHT22;5497;51.388;6.780;2022-11-15T11:06:47;16.20;99.90
10889;DHT22;5497;51.388;6.780;2022-11-15T11:09:22;16.20;99.90
10889;DHT22;5497;51.388;6.780;2022-11-15T11:11:50;16.20;99.90
10889;DHT22;5497;51.388;6.780;2022-11-15T11:14:20;16.30;99.90
10889;DHT22;5497;51.388;6.780;2022-11-15T11:16:49;16.40;99.90
10889;DHT22;5497;51.388;6.780;2022-11-15T11:22:06;16.50;99.90
10889;DHT22;5497;51.388;6.780;2022-11-15T11:24:40;16.50;99.90
10889;DHT22;5497;51.388;6.780;2022-11-15T11:27:17;16.50;99.90
10889;DHT22;5497;51.388;6.780;2022-11-15T11:29:49;16.40;99.90
10889;DHT22;5497;51.388;6.780;2022-11-15T11:32:29;16.40;99.90
10889;DHT22;5497;51.388;6.780;2022-11-15T11:35:01;16.40;99.90
10889;DHT22;5497;51.388;6.780;2022-11-15T11:37:31;16.30;99.90
10889;DHT22;5497;51.388;6.780;2022-11-15T11:40:03;16.30;99.90
10889;DHT22;5497;51.388;6.780;2022-11-15T11:42:35;16.40;99.90
10889;DHT22;5497;51.388;6.780;2022-11-15T11:45:10;16.40;99.90
10889;DHT22;5497;51.388;6.780;2022-11-15T11:47:44;16.50;99.90
10889;DHT22;5497;51.388;6.780;2022-11-15T11:50:14;16.40;99.90
10889;DHT22;5497;51.388;6.780;2022-11-15T11:52:43;16.40;99.90
10889;DHT22;5497;51.388;6.780;2022-11-15T11:57:41;16.30;99.90
10889;DHT22;5497;51.388;6.780;2022-11-15T12:00:15;16.20;99.90
10889;DHT22;5497;51.388;6.780;2022-11-15T12:02:46;16.20;99.90
10889;DHT22;5497;51.388;6.780;2022-11-15T12:05:18;16.20;99.90
10889;DHT22;5497;51.388;6.780;2022-11-15T12:07:46;16.20;99.90
10889;DHT22;5497;51.388;6.780;2022-11-15T12:10:19;16.20;99.90
10889;DHT22;5497;51.388;6.780;2022-11-15T12:12:49;16.20;99.90
10889;DHT22;5497;51.388;6.780;2022-11-15T12:15:19;16.20;99.90
10889;DHT22;5497;51.388;6.780;2022-11-15T12:17:48;16.20;99.90
10889;DHT22;5497;51.388;6.780;2022-11-15T12:20:17;16.20;99.90
10889;DHT22;5497;51.388;6.780;2022-11-15T12:22:49;16.20;99.90
10889;DHT22;5497;51.388;6.780;2022-11-15T12:25:19;16.10;99.90
10889;DHT22;5497;51.388;6.780;2022-11-15T12:27:48;16.10;99.90
10889;DHT22;5497;51.388;6.780;2022-11-15T12:30:18;16.10;99.90
10889;DHT22;5497;51.388;6.780;2022-11-15T12:32:51;16.10;99.90
10889;DHT22;5497;51.388;6.780;2022-11-15T12:35:21;16.00;99.90
10889;DHT22;5497;51.388;6.780;2022-11-15T12:37:50;16.00;99.90
10889;DHT22;5497;51.388;6.780;2022-11-15T12:40:21;16.00;99.90
10889;DHT22;5497;51.388;6.780;2022-11-15T12:42:58;16.00;99.90
10889;DHT22;5497;51.388;6.780;2022-11-15T12:45:26;16.10;99.90
10889;DHT22;5497;51.388;6.780;2022-11-15T12:47:57;16.10;99.90
10889;DHT22;5497;51.388;6.780;2022-11-15T12:50:52;16.10;99.90
10889;DHT22;5497;51.388;6.780;2022-11-15T12:53:26;16.20;99.90
10889;DHT22;5497;51.388;6.780;2022-11-15T12:56:08;16.20;99.90
10889;DHT22;5497;51.388;6.780;2022-11-15T12:58:40;16.20;99.90
10889;DHT22;5497;51.388;6.780;2022-11-15T13:01:07;16.30;99.90
10889;DHT22;5497;51.388;6.780;2022-11-15T13:03:36;16.40;99.90
10889;DHT22;5497;51.388;6.780;2022-11-15T13:06:39;16.40;99.90
10889;DHT22;5497;51.388;6.780;2022-11-15T13:11:50;16.50;99.90
10889;DHT22;5497;51.388;6.780;2022-11-15T13:19:52;16.40;99.90
10889;DHT22;5497;51.388;6.780;2022-11-15T13:22:20;16.30;99.90
10889;DHT22;5497;51.388;6.780;2022-11-15T13:25:11;16.10;99.90
10889;DHT22;5497;51.388;6.780;2022-11-15T13:27:59;15.90;99.90
10889;DHT22;5497;51.388;6.780;2022-11-15T13:30:27;15.80;99.90
10889;DHT22;5497;51.388;6.780;2022-11-15T13:32:55;15.80;99.90
10889;DHT22;5497;51.388;6.780;2022-11-15T13:35:26;15.70;99.90
10889;DHT22;5497;51.388;6.780;2022-11-15T13:37:54;15.70;99.90
10889;DHT22;5497;51.388;6.780;2022-11-15T13:40:22;15.70;99.90
10889;DHT22;5497;51.388;6.780;2022-11-15T13:42:49;15.70;99.90
10889;DHT22;5497;51.388;6.780;2022-11-15T13:45:17;15.70;99.90
10889;DHT22;5497;51.388;6.780;2022-11-15T13:47:44;15.70;99.90
10889;DHT22;5497;51.388;6.780;2022-11-15T13:50:11;15.80;99.90
10889;DHT22;5497;51.388;6.780;2022-11-15T13:52:40;15.70;99.90
10889;DHT22;5497;51.388;6.780;2022-11-15T13:55:09;15.80;99.90
10889;DHT22;5497;51.388;6.780;2022-11-15T13:57:39;15.80;99.90
10889;DHT22;5497;51.388;6.780;2022-11-15T14:00:23;15.80;99.90
10889;DHT22;5497;51.388;6.780;2022-11-15T14:02:50;15.80;99.90
10889;DHT22;5497;51.388;6.780;2022-11-15T14:05:18;15.80;99.90
10889;DHT22;5497;51.388;6.780;2022-11-15T14:07:53;15.80;99.90
10889;DHT22;5497;51.388;6.780;2022-11-15T14:10:25;15.80;99.90
10889;DHT22;5497;51.388;6.780;2022-11-15T14:12:52;15.70;99.90
10889;DHT22;5497;51.388;6.780;2022-11-15T14:15:24;15.50;99.90
10889;DHT22;5497;51.388;6.780;2022-11-15T14:17:52;15.50;99.90
10889;DHT22;5497;51.388;6.780;2022-11-15T14:20:29;15.50;99.90
10889;DHT22;5497;51.388;6.780;2022-11-15T14:22:59;15.40;99.90
10889;DHT22;5497;51.388;6.780;2022-11-15T14:25:26;15.30;99.90
10889;DHT22;5497;51.388;6.780;2022-11-15T14:28:11;15.40;99.90
10889;DHT22;5497;51.388;6.780;2022-11-15T14:30:39;15.30;99.90
10889;DHT22;5497;51.388;6.780;2022-11-15T14:33:17;15.20;99.90
10889;DHT22;5497;51.388;6.780;2022-11-15T14:35:44;15.10;99.90
10889;DHT22;5497;51.388;6.780;2022-11-15T14:38:13;15.00;99.90
10889;DHT22;5497;51.388;6.780;2022-11-15T14:40:40;15.00;99.90
10889;DHT22;5497;51.388;6.780;2022-11-15T14:43:08;14.90;99.90
10889;DHT22;5497;51.388;6.780;2022-11-15T14:45:35;14.80;99.90
10889;DHT22;5497;51.388;6.780;2022-11-15T14:48:02;14.70;99.90
10889;DHT22;5497;51.388;6.780;2022-11-15T14:50:29;14.60;99.90
10889;DHT22;5497;51.388;6.780;2022-11-15T14:52:56;14.60;99.90
10889;DHT22;5497;51.388;6.780;2022-11-15T14:55:25;14.60;99.90
10889;DHT22;5497;51.388;6.780;2022-11-15T14:57:53;14.60;99.90
10889;DHT22;5497;51.388;6.780;2022-11-15T15:00:21;14.60;99.90
10889;DHT22;5497;51.388;6.780;2022-11-15T15:02:48;14.60;99.90
10889;DHT22;5497;51.388;6.780;2022-11-15T15:05:16;14.60;99.90
10889;DHT22;5497;51.388;6.780;2022-11-15T15:07:43;14.60;99.90
10889;DHT22;5497;51.388;6.780;2022-11-15T15:10:10;14.60;99.90
10889;DHT22;5497;51.388;6.780;2022-11-15T15:12:39;14.60;99.90
10889;DHT22;5497;51.388;6.780;2022-11-15T15:15:09;14.50;99.90
10889;DHT22;5497;51.388;6.780;2022-11-15T15:17:38;14.50;99.90
10889;DHT22;5497;51.388;6.780;2022-11-15T15:20:06;14.50;99.90
10889;DHT22;5497;51.388;6.780;2022-11-15T15:22:33;14.50;99.90
10889;DHT22;5497;51.388;6.780;2022-11-15T15:25:00;14.40;99.90
10889;DHT22;5497;51.388;6.780;2022-11-15T15:27:28;14.40;99.90
10889;DHT22;5497;51.388;6.780;2022-11-15T15:29:56;14.40;99.90
10889;DHT22;5497;51.388;6.780;2022-11-15T15:32:23;14.30;99.90
10889;DHT22;5497;51.388;6.780;2022-11-15T15:34:50;14.20;99.90
10889;DHT22;5497;51.388;6.780;2022-11-15T15:40:45;14.20;99.90
10889;DHT22;5497;51.388;6.780;2022-11-15T15:43:13;14.20;99.90
10889;DHT22;5497;51.388;6.780;2022-11-15T15:45:41;14.10;99.90
10889;DHT22;5497;51.388;6.780;2022-11-15T15:48:10;14.10;99.90
10889;DHT22;5497;51.388;6.780;2022-11-15T15:50:38;14.10;99.90
10889;DHT22;5497;51.388;6.780;2022-11-15T15:53:05;14.10;99.90
10889;DHT22;5497;51.388;6.780;2022-11-15T15:55:33;14.10;99.90
10889;DHT22;5497;51.388;6.780;2022-11-15T15:58:01;14.10;99.90
10889;DHT22;5497;51.388;6.780;2022-11-15T16:00:28;14.00;99.90
10889;DHT22;5497;51.388;6.780;2022-11-15T16:02:59;14.00;99.90
10889;DHT22;5497;51.388;6.780;2022-11-15T16:05:26;14.00;99.90
10889;DHT22;5497;51.388;6.780;2022-11-15T16:07:53;14.00;99.90
10889;DHT22;5497;51.388;6.780;2022-11-15T16:10:21;14.00;99.90
10889;DHT22;5497;51.388;6.780;2022-11-15T16:12:50;14.00;99.90
10889;DHT22;5497;51.388;6.780;2022-11-15T16:15:17;14.00;99.90
10889;DHT22;5497;51.388;6.780;2022-11-15T16:17:46;14.00;99.90
10889;DHT22;5497;51.388;6.780;2022-11-15T16:20:21;14.20;99.90
10889;DHT22;5497;51.388;6.780;2022-11-15T16:22:49;14.00;99.90
10889;DHT22;5497;51.388;6.780;2022-11-15T16:25:18;14.00;99.90
10889;DHT22;5497;51.388;6.780;2022-11-15T16:27:45;14.00;99.90
10889;DHT22;5497;51.388;6.780;2022-11-15T16:30:13;14.00;99.90
10889;DHT22;5497;51.388;6.780;2022-11-15T16:32:41;14.00;99.90
10889;DHT22;5497;51.388;6.780;2022-11-15T16:35:09;14.00;99.90
10889;DHT22;5497;51.388;6.780;2022-11-15T16:37:38;14.00;99.90
10889;DHT22;5497;51.388;6.780;2022-11-15T16:40:09;14.00;99.90
10889;DHT22;5497;51.388;6.780;2022-11-15T16:42:39;14.00;99.90
10889;DHT22;5497;51.388;6.780;2022-11-15T16:45:07;14.10;99.90
10889;DHT22;5497;51.388;6.780;2022-11-15T16:47:37;14.00;99.90
10889;DHT22;5497;51.388;6.780;2022-11-15T16:50:05;14.00;99.90
10889;DHT22;5497;51.388;6.780;2022-11-15T16:52:32;14.00;99.90
10889;DHT22;5497;51.388;6.780;2022-11-15T16:55:01;14.00;99.90
10889;DHT22;5497;51.388;6.780;2022-11-15T16:57:28;14.00;99.90
10889;DHT22;5497;51.388;6.780;2022-11-15T16:59:55;14.00;99.90
10889;DHT22;5497;51.388;6.780;2022-11-15T17:02:22;14.00;99.90
10889;DHT22;5497;51.388;6.780;2022-11-15T17:04:49;14.10;99.90
10889;DHT22;5497;51.388;6.780;2022-11-15T17:07:16;14.10;99.90
10889;DHT22;5497;51.388;6.780;2022-11-15T17:09:42;14.00;99.90
10889;DHT22;5497;51.388;6.780;2022-11-15T17:12:11;14.00;99.90
10889;DHT22;5497;51.388;6.780;2022-11-15T17:14:38;14.00;99.90
10889;DHT22;5497;51.388;6.780;2022-11-15T17:17:05;14.00;99.90
10889;DHT22;5497;51.388;6.780;2022-11-15T17:19:32;14.00;99.90
10889;DHT22;5497;51.388;6.780;2022-11-15T17:21:59;14.10;99.90
10889;DHT22;5497;51.388;6.780;2022-11-15T17:24:26;14.10;99.90